createdAt,value
2023-02-13T00:01:53.516Z,103858.75
2023-02-13T00:04:19.982Z,103849.81
2023-02-13T00:06:47.973Z,103848.91
2023-02-13T00:09:14.912Z,103852.50
2023-02-13T00:11:41.650Z,103845.34
2023-02-13T00:14:08.446Z,103848.00
2023-02-13T00:16:34.819Z,103841.75
2023-02-13T00:19:01.183Z,103844.44
2023-02-13T00:21:27.672Z,103841.78
2023-02-13T00:23:54.113Z,103841.78
2023-02-13T00:26:20.586Z,103848.91
2023-02-13T00:28:47.418Z,103836.41
2023-02-13T00:31:19.639Z,103841.75
2023-02-13T00:33:46.509Z,103837.28
2023-02-13T00:36:15.271Z,103837.28
2023-02-13T00:38:42.585Z,103833.69
2023-02-13T00:41:10.024Z,103827.44
2023-02-13T00:43:37.331Z,103831.94
2023-02-13T00:46:04.627Z,103831.00
2023-02-13T00:48:32.898Z,103826.56
2023-02-13T00:50:59.979Z,103823.88
2023-02-13T00:53:27.369Z,103820.28
2023-02-13T00:55:54.000Z,103825.66
2023-02-13T00:58:20.901Z,103818.50
2023-02-13T01:00:47.841Z,103812.22
2023-02-13T01:03:15.355Z,103813.13
2023-02-13T01:05:42.249Z,103821.19
2023-02-13T01:08:09.196Z,103817.59
2023-02-13T01:10:37.962Z,103814.91
2023-02-13T01:13:04.448Z,103823.88
2023-02-13T01:15:30.925Z,103821.19
2023-02-13T01:17:57.558Z,103821.16
2023-02-13T01:20:24.966Z,103817.59
2023-02-13T01:22:51.484Z,103814.00
2023-02-13T01:25:17.992Z,103816.75
2023-02-13T01:27:44.469Z,103819.41
2023-02-13T01:30:14.230Z,103816.72
2023-02-13T01:32:41.890Z,103804.19
2023-02-13T01:35:09.585Z,103805.13
2023-02-13T01:37:36.543Z,103809.56
2023-02-13T01:40:04.451Z,103805.13
2023-02-13T01:42:34.119Z,103803.28
2023-02-13T01:45:15.762Z,103802.41
2023-02-13T01:47:47.890Z,103801.53
2023-02-13T01:50:24.515Z,103811.34
2023-02-13T01:52:59.959Z,103800.63
2023-02-13T01:55:29.320Z,103803.28
2023-02-13T01:58:06.585Z,103799.72
2023-02-13T02:00:34.583Z,103799.69
2023-02-13T02:03:06.968Z,103802.34
2023-02-13T02:05:34.900Z,103801.47
2023-02-13T02:08:03.921Z,103805.94
2023-02-13T02:10:32.461Z,103797.91
2023-02-13T02:13:06.801Z,103795.22
2023-02-13T02:15:33.407Z,103789.84
2023-02-13T02:17:59.870Z,103796.09
2023-02-13T02:20:36.575Z,103796.09
2023-02-13T02:23:21.725Z,103789.84
2023-02-13T02:25:57.311Z,103788.97
2023-02-13T02:28:51.267Z,103789.84
2023-02-13T02:31:55.365Z,103783.59
2023-02-13T02:34:38.518Z,103784.47
2023-02-13T02:37:16.386Z,103788.06
2023-02-13T02:40:11.847Z,103787.19
2023-02-13T02:43:03.961Z,103780.91
2023-02-13T02:45:42.879Z,103777.34
2023-02-13T02:48:56.415Z,103782.69
2023-02-13T02:51:45.423Z,103769.28
2023-02-13T02:54:51.821Z,103775.53
2023-02-13T02:57:24.861Z,103778.25
2023-02-13T03:00:11.950Z,103777.34
2023-02-13T03:02:57.269Z,103768.38
2023-02-13T03:05:50.238Z,103773.75
2023-02-13T03:08:38.056Z,103767.50
2023-02-13T03:11:24.091Z,103762.13
2023-02-13T03:13:50.530Z,103764.81
2023-02-13T03:16:39.210Z,103768.41
2023-02-13T03:19:31.306Z,103766.59
2023-02-13T03:22:18.747Z,103766.59
2023-02-13T03:25:10.963Z,103759.47
2023-02-13T03:28:07.603Z,103762.16
2023-02-13T03:30:42.924Z,103763.91
2023-02-13T03:33:16.961Z,103769.28
2023-02-13T03:36:31.028Z,103769.28
2023-02-13T03:39:06.960Z,103768.41
2023-02-13T03:41:45.189Z,103771.06
2023-02-13T03:44:18.641Z,103771.97
2023-02-13T03:46:48.647Z,103767.50
2023-02-13T03:49:42.264Z,103771.09
2023-02-13T03:52:11.643Z,103763.94
2023-02-13T03:55:09.647Z,103771.97
2023-02-13T03:57:58.441Z,103771.97
2023-02-13T04:00:28.583Z,103764.81
2023-02-13T04:03:08.792Z,103759.47
2023-02-13T04:05:41.837Z,103762.16
2023-02-13T04:08:08.485Z,103761.25
2023-02-13T04:10:40.693Z,103759.44
2023-02-13T04:13:18.774Z,103766.59
2023-02-13T04:16:01.200Z,103760.34
2023-02-13T04:18:30.877Z,103753.19
2023-02-13T04:21:01.122Z,103754.06
2023-02-13T04:23:27.731Z,103756.78
2023-02-13T04:25:56.086Z,103758.53
2023-02-13T04:28:22.826Z,103752.28
2023-02-13T04:30:50.626Z,103756.78
2023-02-13T04:33:17.382Z,103757.66
2023-02-13T04:35:44.137Z,103752.28
2023-02-13T04:38:10.608Z,103752.28
2023-02-13T04:40:37.019Z,103752.28
2023-02-13T04:43:03.556Z,103748.72
2023-02-13T04:45:30.222Z,103752.31
2023-02-13T04:47:57.639Z,103749.63
2023-02-13T04:50:25.484Z,103754.06
2023-02-13T04:52:56.574Z,103754.97
2023-02-13T04:55:25.137Z,103762.13
2023-02-13T04:57:55.865Z,103755.84
2023-02-13T05:00:24.395Z,103759.44
2023-02-13T05:02:50.937Z,103754.09
2023-02-13T05:05:17.856Z,103759.44
2023-02-13T05:07:44.323Z,103752.28
2023-02-13T05:10:11.843Z,103757.66
2023-02-13T05:12:38.295Z,103751.41
2023-02-13T05:15:06.240Z,103749.63
2023-02-13T05:17:32.644Z,103747.84
2023-02-13T05:19:59.906Z,103746.94
2023-02-13T05:22:44.785Z,103744.25
2023-02-13T05:25:11.224Z,103744.25
2023-02-13T05:27:37.646Z,103741.56
2023-02-13T05:30:04.336Z,103749.63
2023-02-13T05:32:30.759Z,103751.41
2023-02-13T05:34:57.119Z,103745.16
2023-02-13T05:37:23.528Z,103746.03
2023-02-13T05:39:49.913Z,103751.38
2023-02-13T05:42:16.322Z,103745.13
2023-02-13T05:44:42.726Z,103748.72
2023-02-13T05:47:09.140Z,103748.72
2023-02-13T05:49:35.574Z,103748.72
2023-02-13T05:52:02.012Z,103763.03
2023-02-13T05:54:28.445Z,103764.78
2023-02-13T05:56:54.858Z,103750.50
2023-02-13T05:59:23.751Z,103757.66
2023-02-13T06:01:50.537Z,103750.50
2023-02-13T06:04:17.024Z,103753.16
2023-02-13T06:06:44.826Z,103754.06
2023-02-13T06:09:11.193Z,103743.34
2023-02-13T06:11:37.564Z,103749.59
2023-02-13T06:14:04.058Z,103752.28
2023-02-13T06:16:31.114Z,103751.41
2023-02-13T06:18:57.919Z,103755.84
2023-02-13T06:21:24.300Z,103761.22
2023-02-13T06:23:50.879Z,103757.66
2023-02-13T06:26:17.407Z,103755.84
2023-02-13T06:28:43.864Z,103754.06
2023-02-13T06:31:10.522Z,103757.63
2023-02-13T06:33:37.058Z,103753.16
2023-02-13T06:36:03.649Z,103748.69
2023-02-13T06:38:30.607Z,103746.91
2023-02-13T06:41:02.217Z,103743.34
2023-02-13T06:43:28.855Z,103753.13
2023-02-13T06:45:55.395Z,103755.84
2023-02-13T06:48:22.157Z,103750.47
2023-02-13T06:50:48.667Z,103754.97
2023-02-13T06:53:15.080Z,103754.06
2023-02-13T06:55:41.572Z,103746.91
2023-02-13T06:58:07.933Z,103756.72
2023-02-13T07:00:34.582Z,103754.06
2023-02-13T07:03:02.971Z,103764.78
2023-02-13T07:05:29.893Z,103762.09
2023-02-13T07:07:56.567Z,103762.13
2023-02-13T07:10:23.333Z,103761.22
2023-02-13T07:13:03.665Z,103759.44
2023-02-13T07:15:32.623Z,103775.53
2023-02-13T07:17:59.356Z,103777.28
2023-02-13T07:20:26.707Z,103779.09
2023-02-13T07:22:53.144Z,103774.59
2023-02-13T07:25:19.799Z,103782.66
2023-02-13T07:27:46.154Z,103782.66
2023-02-13T07:30:12.747Z,103786.22
2023-02-13T07:32:39.166Z,103781.78
2023-02-13T07:35:05.963Z,103793.41
2023-02-13T07:37:32.544Z,103791.59
2023-02-13T07:39:59.160Z,103792.50
2023-02-13T07:42:25.582Z,103789.84
2023-02-13T07:44:52.004Z,103789.84
2023-02-13T07:47:20.134Z,103793.44
2023-02-13T07:49:46.782Z,103788.97
2023-02-13T07:52:13.281Z,103792.53
2023-02-13T07:54:47.235Z,103792.53
2023-02-13T07:57:15.151Z,103789.88
2023-02-13T07:59:41.543Z,103796.13
2023-02-13T08:02:12.684Z,103799.72
2023-02-13T08:04:39.112Z,103797.94
2023-02-13T08:07:05.543Z,103791.69
2023-02-13T08:09:50.697Z,103795.25
2023-02-13T08:12:17.197Z,103795.28
2023-02-13T08:14:43.612Z,103796.19
2023-02-13T08:17:10.069Z,103798.88
2023-02-13T08:19:36.589Z,103795.31
2023-02-13T08:22:02.998Z,103797.06
2023-02-13T08:24:29.368Z,103800.66
2023-02-13T08:26:56.635Z,103789.06
2023-02-13T08:29:23.057Z,103793.53
2023-02-13T08:31:49.509Z,103794.44
2023-02-13T08:34:15.976Z,103797.13
2023-02-13T08:36:42.428Z,103804.28
2023-02-13T08:39:12.063Z,103792.66
2023-02-13T08:41:38.549Z,103797.13
2023-02-13T08:44:05.245Z,103804.31
2023-02-13T08:46:31.838Z,103797.16
2023-02-13T08:48:58.294Z,103798.94
2023-02-13T08:51:24.715Z,103793.59
2023-02-13T08:53:51.141Z,103797.16
2023-02-13T08:56:17.602Z,103794.50
2023-02-13T08:58:44.169Z,103792.69
2023-02-13T09:01:10.644Z,103798.97
2023-02-13T09:03:37.106Z,103802.56
2023-02-13T09:06:03.947Z,103797.16
2023-02-13T09:08:30.901Z,103800.75
2023-02-13T09:10:59.750Z,103791.81
2023-02-13T09:13:27.020Z,103792.72
2023-02-13T09:15:53.582Z,103795.41
2023-02-13T09:18:20.186Z,103790.94
2023-02-13T09:20:46.585Z,103789.16
2023-02-13T09:23:13.028Z,103783.75
2023-02-13T09:25:39.526Z,103782.88
2023-02-13T09:28:06.150Z,103790.91
2023-02-13T09:30:32.726Z,103789.09
2023-02-13T09:32:59.184Z,103793.59
2023-02-13T09:35:25.606Z,103792.66
2023-02-13T09:37:51.994Z,103806.09
2023-02-13T09:40:25.282Z,103790.84
2023-02-13T09:42:53.042Z,103792.63
2023-02-13T09:45:21.926Z,103800.66
2023-02-13T09:47:48.878Z,103793.47
2023-02-13T09:50:31.389Z,103793.44
2023-02-13T09:52:59.376Z,103789.81
2023-02-13T09:55:52.795Z,103784.44
2023-02-13T09:58:33.629Z,103784.38
2023-02-13T10:01:03.088Z,103789.75
2023-02-13T10:03:43.719Z,103786.16
2023-02-13T10:06:23.229Z,103784.31
2023-02-13T10:09:17.353Z,103778.03
2023-02-13T10:12:09.828Z,103788.75
2023-02-13T10:14:53.255Z,103775.22
2023-02-13T10:17:31.450Z,103766.22
2023-02-13T10:20:03.336Z,103772.44
2023-02-13T10:22:35.916Z,103765.25
2023-02-13T10:25:15.975Z,103772.34
2023-02-13T10:27:53.377Z,103760.69
2023-02-13T10:30:25.202Z,103760.56
2023-02-13T10:33:19.619Z,103762.28
2023-02-13T10:36:09.351Z,103764.97
2023-02-13T10:38:42.015Z,103754.13
2023-02-13T10:41:45.768Z,103761.38
2023-02-13T10:44:38.020Z,103753.25
2023-02-13T10:47:28.222Z,103757.66
2023-02-13T10:50:09.571Z,103749.56
2023-02-13T10:52:46.163Z,103747.72
2023-02-13T10:55:27.136Z,103749.47
2023-02-13T10:58:19.863Z,103749.44
2023-02-13T11:00:56.228Z,103752.09
2023-02-13T11:03:28.758Z,103743.16
2023-02-13T11:05:58.044Z,103742.22
2023-02-13T11:08:33.148Z,103743.00
2023-02-13T11:10:59.828Z,103747.50
2023-02-13T11:13:29.825Z,103738.56
2023-02-13T11:15:56.658Z,103741.28
2023-02-13T11:18:26.365Z,103738.47
2023-02-13T11:21:11.215Z,103733.09
2023-02-13T11:23:40.318Z,103734.91
2023-02-13T11:26:09.892Z,103725.81
2023-02-13T11:28:48.721Z,103728.50
2023-02-13T11:31:24.130Z,103726.75
2023-02-13T11:33:51.421Z,103727.69
2023-02-13T11:36:30.386Z,103735.81
2023-02-13T11:39:06.305Z,103738.34
2023-02-13T11:41:40.868Z,103733.03
2023-02-13T11:44:21.705Z,103733.09
2023-02-13T11:46:50.606Z,103728.56
2023-02-13T11:49:23.071Z,103731.25
2023-02-13T11:51:55.839Z,103724.06
2023-02-13T11:54:39.059Z,103716.75
2023-02-13T11:57:25.488Z,103716.72
2023-02-13T11:59:53.478Z,103713.13
2023-02-13T12:02:22.687Z,103714.81
2023-02-13T12:04:52.428Z,103704.09
2023-02-13T12:07:29.645Z,103704.91
2023-02-13T12:10:14.691Z,103705.84
2023-02-13T12:12:47.341Z,103703.94
2023-02-13T12:15:30.049Z,103703.91
2023-02-13T12:18:04.943Z,103690.38
2023-02-13T12:20:53.338Z,103689.56
2023-02-13T12:23:58.115Z,103693.13
2023-02-13T12:26:40.966Z,103681.31
2023-02-13T12:29:34.250Z,103683.13
2023-02-13T12:32:17.703Z,103682.28
2023-02-13T12:35:05.157Z,103680.47
2023-02-13T12:38:12.971Z,103682.44
2023-02-13T12:40:58.247Z,103676.06
2023-02-13T12:43:39.845Z,103674.19
2023-02-13T12:46:21.956Z,103672.56
2023-02-13T12:49:09.869Z,103670.91
2023-02-13T12:52:03.279Z,103669.03
2023-02-13T12:54:57.059Z,103677.22
2023-02-13T12:57:36.604Z,103677.22
2023-02-13T13:00:19.439Z,103671.75
2023-02-13T13:03:05.617Z,103667.34
2023-02-13T13:06:10.990Z,103673.59
2023-02-13T13:08:47.163Z,103662.78
2023-02-13T13:11:41.022Z,103669.03
2023-02-13T13:14:17.459Z,103655.56
2023-02-13T13:17:11.682Z,103662.78
2023-02-13T13:19:50.948Z,103652.97
2023-02-13T13:22:35.389Z,103648.47
2023-02-13T13:25:27.474Z,103642.94
2023-02-13T13:28:02.000Z,103641.81
2023-02-13T13:30:33.846Z,103638.13
2023-02-13T13:33:18.421Z,103631.78
2023-02-13T13:36:02.149Z,103630.06
2023-02-13T13:38:42.819Z,103623.81
2023-02-13T13:41:18.530Z,103622.81
2023-02-13T13:44:16.001Z,103622.50
2023-02-13T13:47:07.264Z,103606.84
2023-02-13T13:49:48.515Z,103606.63
2023-02-13T13:52:33.058Z,103602.75
2023-02-13T13:55:02.613Z,103602.44
2023-02-13T13:57:41.301Z,103599.25
2023-02-13T14:00:13.974Z,103597.25
2023-02-13T14:02:47.208Z,103598.25
2023-02-13T14:05:13.593Z,103599.34
2023-02-13T14:07:41.852Z,103599.44
2023-02-13T14:10:26.412Z,103597.63
2023-02-13T14:12:55.746Z,103600.38
2023-02-13T14:15:34.245Z,103596.69
2023-02-13T14:18:20.520Z,103589.38
2023-02-13T14:21:06.317Z,103584.84
2023-02-13T14:23:52.591Z,103585.75
2023-02-13T14:26:29.928Z,103585.34
2023-02-13T14:28:58.224Z,103586.34
2023-02-13T14:31:34.673Z,103583.72
2023-02-13T14:34:04.646Z,103572.81
2023-02-13T14:36:36.850Z,103567.19
2023-02-13T14:39:08.112Z,103576.53
2023-02-13T14:41:58.423Z,103566.31
2023-02-13T14:44:43.320Z,103567.88
2023-02-13T14:47:40.279Z,103566.91
2023-02-13T14:50:08.160Z,103567.09
2023-02-13T14:52:40.166Z,103569.28
2023-02-13T14:55:28.223Z,103561.81
2023-02-13T14:58:05.909Z,103563.91
2023-02-13T15:00:36.960Z,103570.38
2023-02-13T15:03:20.497Z,103569.19
2023-02-13T15:05:52.846Z,103568.28
2023-02-13T15:08:29.875Z,103556.03
2023-02-13T15:10:57.658Z,103558.00
2023-02-13T15:13:34.640Z,103572.56
2023-02-13T15:16:05.735Z,103566.38
2023-02-13T15:18:40.086Z,103572.69
2023-02-13T15:21:06.702Z,103569.97
2023-02-13T15:23:34.673Z,103570.03
2023-02-13T15:26:06.545Z,103577.31
2023-02-13T15:28:34.634Z,103568.44
2023-02-13T15:31:07.271Z,103573.94
2023-02-13T15:33:49.001Z,103564.09
2023-02-13T15:36:21.594Z,103566.88
2023-02-13T15:38:48.057Z,103562.50
2023-02-13T15:41:21.036Z,103560.75
2023-02-13T15:43:53.524Z,103558.13
2023-02-13T15:46:33.742Z,103564.47
2023-02-13T15:49:05.525Z,103557.41
2023-02-13T15:51:32.266Z,103551.22
2023-02-13T15:54:01.670Z,103549.50
2023-02-13T15:58:56.620Z,103554.09
2023-02-13T16:01:23.908Z,103547.94
2023-02-13T16:03:56.414Z,103546.22
2023-02-13T16:06:23.812Z,103535.50
2023-02-13T16:08:54.178Z,103540.97
2023-02-13T16:11:36.998Z,103542.91
2023-02-13T16:14:08.803Z,103534.97
2023-02-13T16:16:46.355Z,103540.44
2023-02-13T16:19:40.782Z,103543.25
2023-02-13T16:22:26.200Z,103537.97
2023-02-13T16:24:55.748Z,103543.41
2023-02-13T16:27:27.595Z,103543.47
2023-02-13T16:30:00.759Z,103543.56
2023-02-13T16:32:30.979Z,103538.28
2023-02-13T16:35:14.846Z,103541.03
2023-02-13T16:37:50.340Z,103539.28
2023-02-13T16:40:30.945Z,103541.16
2023-02-13T16:43:34.659Z,103541.22
2023-02-13T16:46:19.122Z,103540.34
2023-02-13T16:48:58.259Z,103543.03
2023-02-13T16:51:42.274Z,103545.78
2023-02-13T16:54:11.530Z,103544.94
2023-02-13T16:56:44.251Z,103543.13
2023-02-13T16:59:22.607Z,103540.50
2023-02-13T17:02:02.370Z,103536.91
2023-02-13T17:04:28.895Z,103539.59
2023-02-13T17:06:55.823Z,103537.84
2023-02-13T17:09:22.958Z,103537.84
2023-02-13T17:11:53.650Z,103540.53
2023-02-13T17:14:20.715Z,103541.44
2023-02-13T17:16:48.652Z,103543.22
2023-02-13T17:19:15.159Z,103535.19
2023-02-13T17:21:42.260Z,103545.00
2023-02-13T17:24:17.269Z,103543.25
2023-02-13T17:26:43.717Z,103539.66
2023-02-13T17:29:10.155Z,103535.16
2023-02-13T17:31:37.011Z,103546.81
2023-02-13T17:34:05.160Z,103553.06
2023-02-13T17:36:31.621Z,103555.72
2023-02-13T17:38:58.289Z,103551.22
2023-02-13T17:41:24.754Z,103559.28
2023-02-13T17:43:51.222Z,103567.25
2023-02-13T17:46:17.843Z,103565.50
2023-02-13T17:48:44.395Z,103563.69
2023-02-13T17:51:13.934Z,103561.91
2023-02-13T17:53:40.537Z,103564.56
2023-02-13T17:56:06.952Z,103575.25
2023-02-13T17:58:33.324Z,103571.66
2023-02-13T18:01:00.089Z,103575.16
2023-02-13T18:03:26.731Z,103574.19
2023-02-13T18:05:54.202Z,103579.47
2023-02-13T18:08:20.673Z,103569.59
2023-02-13T18:10:47.193Z,103577.56
2023-02-13T18:13:13.869Z,103576.59
2023-02-13T18:15:43.410Z,103573.81
2023-02-13T18:18:11.308Z,103565.72
2023-02-13T18:20:37.720Z,103572.81
2023-02-13T18:23:04.190Z,103568.38
2023-02-13T18:25:30.634Z,103570.16
2023-02-13T18:27:57.143Z,103567.53
2023-02-13T18:30:24.391Z,103567.50
2023-02-13T18:32:55.992Z,103565.69
2023-02-13T18:35:23.069Z,103571.94
2023-02-13T18:37:50.206Z,103573.75
2023-02-13T18:40:17.675Z,103569.34
2023-02-13T18:42:44.336Z,103574.66
2023-02-13T18:45:12.070Z,103563.88
2023-02-13T18:47:38.793Z,103566.56
2023-02-13T18:50:05.944Z,103563.91
2023-02-13T18:52:32.309Z,103566.66
2023-02-13T18:54:58.726Z,103563.03
2023-02-13T18:57:25.257Z,103561.97
2023-02-13T18:59:51.759Z,103562.91
2023-02-13T19:02:18.149Z,103563.78
2023-02-13T19:04:44.658Z,103560.28
2023-02-13T19:07:11.015Z,103564.78
2023-02-13T19:09:40.255Z,103561.13
2023-02-13T19:12:07.732Z,103555.78
2023-02-13T19:14:34.200Z,103562.03
2023-02-13T19:17:00.763Z,103557.59
2023-02-13T19:19:27.236Z,103559.34
2023-02-13T19:21:53.683Z,103556.63
2023-02-13T19:24:20.071Z,103560.09
2023-02-13T19:26:47.228Z,103561.81
2023-02-13T19:29:13.603Z,103567.16
2023-02-13T19:31:40.159Z,103560.97
2023-02-13T19:34:06.900Z,103567.19
2023-02-13T19:36:33.403Z,103555.59
2023-02-13T19:39:05.183Z,103565.41
2023-02-13T19:41:32.878Z,103557.28
2023-02-13T19:44:00.468Z,103564.44
2023-02-13T19:46:29.702Z,103560.91
2023-02-13T19:48:56.783Z,103556.47
2023-02-13T19:51:25.495Z,103574.19
2023-02-13T19:54:00.278Z,103568.75
2023-02-13T19:56:28.236Z,103570.47
2023-02-13T19:58:54.827Z,103579.38
2023-02-13T20:01:23.019Z,103576.81
2023-02-13T20:03:49.530Z,103575.91
2023-02-13T20:06:19.396Z,103579.50
2023-02-13T20:08:46.289Z,103569.69
2023-02-13T20:11:14.484Z,103583.88
2023-02-13T20:13:41.252Z,103580.25
2023-02-13T20:16:12.855Z,103583.00
2023-02-13T20:18:39.955Z,103570.47
2023-02-13T20:21:11.452Z,103579.44
2023-02-13T20:23:37.954Z,103580.34
2023-02-13T20:26:13.799Z,103581.19
2023-02-13T20:28:41.776Z,103583.84
2023-02-13T20:31:16.127Z,103578.56
2023-02-13T20:33:42.781Z,103583.91
2023-02-13T20:36:15.290Z,103573.22
2023-02-13T20:38:42.514Z,103572.41
2023-02-13T20:41:09.724Z,103574.25
2023-02-13T20:43:36.184Z,103576.03
2023-02-13T20:46:02.728Z,103568.91
2023-02-13T20:48:29.199Z,103579.59
2023-02-13T20:51:03.373Z,103565.34
2023-02-13T20:53:30.694Z,103570.66
2023-02-13T20:56:24.565Z,103570.56
2023-02-13T20:58:52.302Z,103574.16
2023-02-13T21:01:22.464Z,103577.75
2023-02-13T21:03:53.639Z,103565.25
2023-02-13T21:06:22.797Z,103576.84
2023-02-13T21:08:49.936Z,103575.09
2023-02-13T21:11:17.531Z,103575.03
2023-02-13T21:13:43.998Z,103575.97
2023-02-13T21:16:16.512Z,103574.16
2023-02-13T21:18:43.783Z,103569.66
2023-02-13T21:21:11.208Z,103572.41
2023-02-13T21:23:38.149Z,103575.09
2023-02-13T21:26:16.804Z,103573.28
2023-02-13T21:28:48.566Z,103574.97
2023-02-13T21:31:18.416Z,103578.53
2023-02-13T21:33:45.202Z,103583.03
2023-02-13T21:36:12.824Z,103577.69
2023-02-13T21:38:41.122Z,103574.09
2023-02-13T21:41:14.642Z,103576.78
2023-02-13T21:43:42.222Z,103572.28
2023-02-13T21:46:10.738Z,103570.53
2023-02-13T21:48:38.076Z,103579.44
2023-02-13T21:51:13.056Z,103578.47
2023-02-13T21:53:40.010Z,103575.75
2023-02-13T21:56:13.707Z,103571.22
2023-02-13T21:58:42.249Z,103570.38
2023-02-13T22:01:26.090Z,103567.56
2023-02-13T22:03:58.418Z,103562.19
2023-02-13T22:06:27.325Z,103566.56
2023-02-13T22:09:02.185Z,103564.75
2023-02-13T22:11:29.074Z,103563.84
2023-02-13T22:13:57.616Z,103561.25
2023-02-13T22:16:24.435Z,103564.75
2023-02-13T22:18:51.132Z,103561.97
2023-02-13T22:21:20.620Z,103560.16
2023-02-13T22:23:48.206Z,103555.63
2023-02-13T22:26:20.955Z,103554.69
2023-02-13T22:28:47.670Z,103559.97
2023-02-13T22:31:15.262Z,103559.16
2023-02-13T22:33:42.915Z,103553.91
2023-02-13T22:36:12.466Z,103550.44
2023-02-13T22:38:40.023Z,103552.31
2023-02-13T22:41:07.329Z,103547.00
2023-02-13T22:43:34.504Z,103549.75
2023-02-13T22:46:13.281Z,103545.34
2023-02-13T22:48:41.132Z,103543.53
2023-02-13T22:51:10.095Z,103536.50
2023-02-13T22:53:37.520Z,103533.03
2023-02-13T22:56:05.889Z,103531.13
2023-02-13T22:58:32.452Z,103529.22
2023-02-13T23:00:59.834Z,103531.88
2023-02-13T23:03:26.730Z,103538.94
2023-02-13T23:05:53.607Z,103529.34
2023-02-13T23:08:20.032Z,103523.19
2023-02-13T23:11:06.386Z,103530.31
2023-02-13T23:13:32.774Z,103521.34
2023-02-13T23:15:59.367Z,103521.41
2023-02-13T23:18:25.889Z,103529.41
2023-02-13T23:20:52.358Z,103523.13
2023-02-13T23:23:18.881Z,103523.13
2023-02-13T23:25:45.339Z,103524.94
2023-02-13T23:28:11.744Z,103520.44
2023-02-13T23:30:39.525Z,103517.75
2023-02-13T23:33:06.039Z,103520.38
2023-02-13T23:35:32.577Z,103515.91
2023-02-13T23:37:59.033Z,103522.09
2023-02-13T23:40:25.515Z,103518.63
2023-02-13T23:42:51.938Z,103522.97
2023-02-13T23:45:18.479Z,103524.75
2023-02-13T23:47:44.899Z,103516.69
2023-02-13T23:50:11.362Z,103522.00
2023-02-13T23:52:37.891Z,103522.78
2023-02-13T23:55:04.810Z,103521.00
2023-02-13T23:57:31.322Z,103527.13
2023-02-13T23:59:57.675Z,103521.81
